sensor_id;sensor_type;location;lat;lon;timestamp;P1;durP1;ratioP1;P2;durP2;ratioP2
12052;SDS011;6087;48.982;12.064;2023-08-20T00:01:00;6.28;;;5.65;;
12052;SDS011;6087;48.982;12.064;2023-08-20T00:03:29;6.43;;;5.90;;
12052;SDS011;6087;48.982;12.064;2023-08-20T00:05:57;8.98;;;5.80;;
12052;SDS011;6087;48.982;12.064;2023-08-20T00:08:24;6.22;;;5.70;;
12052;SDS011;6087;48.982;12.064;2023-08-20T00:10:52;6.68;;;5.85;;
12052;SDS011;6087;48.982;12.064;2023-08-20T00:13:19;6.10;;;5.22;;
12052;SDS011;6087;48.982;12.064;2023-08-20T00:15:46;6.72;;;5.60;;
12052;SDS011;6087;48.982;12.064;2023-08-20T00:18:13;6.47;;;5.97;;
12052;SDS011;6087;48.982;12.064;2023-08-20T00:20:41;6.40;;;5.85;;
12052;SDS011;6087;48.982;12.064;2023-08-20T00:23:10;6.45;;;5.95;;
12052;SDS011;6087;48.982;12.064;2023-08-20T00:25:38;5.90;;;5.40;;
12052;SDS011;6087;48.982;12.064;2023-08-20T00:28:06;7.40;;;6.70;;
12052;SDS011;6087;48.982;12.064;2023-08-20T00:30:33;5.95;;;5.28;;
12052;SDS011;6087;48.982;12.064;2023-08-20T00:33:00;6.07;;;5.45;;
12052;SDS011;6087;48.982;12.064;2023-08-20T00:35:28;6.05;;;5.15;;
12052;SDS011;6087;48.982;12.064;2023-08-20T00:37:55;6.05;;;5.45;;
12052;SDS011;6087;48.982;12.064;2023-08-20T00:40:22;7.50;;;5.45;;
12052;SDS011;6087;48.982;12.064;2023-08-20T00:42:49;6.72;;;6.07;;
12052;SDS011;6087;48.982;12.064;2023-08-20T00:45:17;5.82;;;5.32;;
12052;SDS011;6087;48.982;12.064;2023-08-20T00:47:44;7.93;;;5.68;;
12052;SDS011;6087;48.982;12.064;2023-08-20T00:50:11;6.53;;;5.82;;
12052;SDS011;6087;48.982;12.064;2023-08-20T00:52:39;6.97;;;6.38;;
12052;SDS011;6087;48.982;12.064;2023-08-20T00:55:07;6.00;;;5.50;;
12052;SDS011;6087;48.982;12.064;2023-08-20T00:57:36;7.55;;;5.70;;
12052;SDS011;6087;48.982;12.064;2023-08-20T01:00:03;6.68;;;6.07;;
12052;SDS011;6087;48.982;12.064;2023-08-20T01:02:38;7.00;;;5.90;;
12052;SDS011;6087;48.982;12.064;2023-08-20T01:05:06;6.47;;;5.72;;
12052;SDS011;6087;48.982;12.064;2023-08-20T01:07:39;6.22;;;5.72;;
12052;SDS011;6087;48.982;12.064;2023-08-20T01:10:14;7.97;;;5.78;;
12052;SDS011;6087;48.982;12.064;2023-08-20T01:12:45;6.13;;;5.63;;
12052;SDS011;6087;48.982;12.064;2023-08-20T01:15:13;6.32;;;5.72;;
12052;SDS011;6087;48.982;12.064;2023-08-20T01:17:41;7.97;;;6.20;;
12052;SDS011;6087;48.982;12.064;2023-08-20T01:20:09;6.20;;;5.72;;
12052;SDS011;6087;48.982;12.064;2023-08-20T01:22:41;8.48;;;6.00;;
12052;SDS011;6087;48.982;12.064;2023-08-20T01:25:38;6.50;;;5.90;;
12052;SDS011;6087;48.982;12.064;2023-08-20T01:28:26;7.13;;;5.85;;
12052;SDS011;6087;48.982;12.064;2023-08-20T01:30:54;8.30;;;6.20;;
12052;SDS011;6087;48.982;12.064;2023-08-20T01:33:24;6.13;;;5.63;;
12052;SDS011;6087;48.982;12.064;2023-08-20T01:35:51;6.65;;;6.05;;
12052;SDS011;6087;48.982;12.064;2023-08-20T01:38:18;7.22;;;6.13;;
12052;SDS011;6087;48.982;12.064;2023-08-20T01:40:45;6.70;;;6.10;;
12052;SDS011;6087;48.982;12.064;2023-08-20T01:43:13;6.80;;;6.15;;
12052;SDS011;6087;48.982;12.064;2023-08-20T01:45:41;6.68;;;6.00;;
12052;SDS011;6087;48.982;12.064;2023-08-20T01:48:08;6.97;;;6.28;;
12052;SDS011;6087;48.982;12.064;2023-08-20T01:50:35;7.03;;;6.43;;
12052;SDS011;6087;48.982;12.064;2023-08-20T01:53:02;6.72;;;6.00;;
12052;SDS011;6087;48.982;12.064;2023-08-20T01:55:29;9.35;;;6.45;;
12052;SDS011;6087;48.982;12.064;2023-08-20T01:57:56;7.18;;;6.03;;
12052;SDS011;6087;48.982;12.064;2023-08-20T02:00:23;7.45;;;6.07;;
12052;SDS011;6087;48.982;12.064;2023-08-20T02:02:51;7.97;;;6.53;;
12052;SDS011;6087;48.982;12.064;2023-08-20T02:05:19;8.05;;;6.78;;
12052;SDS011;6087;48.982;12.064;2023-08-20T02:07:46;6.10;;;5.60;;
12052;SDS011;6087;48.982;12.064;2023-08-20T02:10:13;7.25;;;6.47;;
12052;SDS011;6087;48.982;12.064;2023-08-20T02:12:40;5.60;;;5.05;;
12052;SDS011;6087;48.982;12.064;2023-08-20T02:15:08;6.88;;;6.15;;
12052;SDS011;6087;48.982;12.064;2023-08-20T02:17:36;6.47;;;5.88;;
12052;SDS011;6087;48.982;12.064;2023-08-20T02:20:05;7.75;;;6.30;;
12052;SDS011;6087;48.982;12.064;2023-08-20T02:22:35;7.28;;;6.28;;
12052;SDS011;6087;48.982;12.064;2023-08-20T02:25:02;6.75;;;6.15;;
12052;SDS011;6087;48.982;12.064;2023-08-20T02:27:29;7.22;;;6.63;;
12052;SDS011;6087;48.982;12.064;2023-08-20T02:29:56;7.68;;;7.00;;
12052;SDS011;6087;48.982;12.064;2023-08-20T02:32:23;7.47;;;6.53;;
12052;SDS011;6087;48.982;12.064;2023-08-20T02:34:50;6.72;;;6.20;;
12052;SDS011;6087;48.982;12.064;2023-08-20T02:37:18;7.13;;;6.45;;
12052;SDS011;6087;48.982;12.064;2023-08-20T02:39:45;8.30;;;7.60;;
12052;SDS011;6087;48.982;12.064;2023-08-20T02:42:12;8.82;;;6.82;;
12052;SDS011;6087;48.982;12.064;2023-08-20T02:44:38;7.47;;;6.78;;
12052;SDS011;6087;48.982;12.064;2023-08-20T02:47:05;9.02;;;6.78;;
12052;SDS011;6087;48.982;12.064;2023-08-20T02:49:32;10.85;;;6.68;;
12052;SDS011;6087;48.982;12.064;2023-08-20T02:51:59;7.78;;;7.18;;
12052;SDS011;6087;48.982;12.064;2023-08-20T02:54:27;6.88;;;6.30;;
12052;SDS011;6087;48.982;12.064;2023-08-20T02:56:57;7.22;;;6.43;;
12052;SDS011;6087;48.982;12.064;2023-08-20T02:59:24;7.45;;;6.75;;
12052;SDS011;6087;48.982;12.064;2023-08-20T03:01:51;7.72;;;7.00;;
12052;SDS011;6087;48.982;12.064;2023-08-20T03:04:18;7.25;;;6.47;;
12052;SDS011;6087;48.982;12.064;2023-08-20T03:06:44;7.25;;;6.55;;
12052;SDS011;6087;48.982;12.064;2023-08-20T03:09:11;8.43;;;7.35;;
12052;SDS011;6087;48.982;12.064;2023-08-20T03:11:39;8.23;;;7.53;;
12052;SDS011;6087;48.982;12.064;2023-08-20T03:14:06;9.27;;;6.82;;
12052;SDS011;6087;48.982;12.064;2023-08-20T03:16:33;7.32;;;6.63;;
12052;SDS011;6087;48.982;12.064;2023-08-20T03:19:00;6.47;;;5.88;;
12052;SDS011;6087;48.982;12.064;2023-08-20T03:21:28;9.77;;;6.40;;
12052;SDS011;6087;48.982;12.064;2023-08-20T03:23:54;10.88;;;7.22;;
12052;SDS011;6087;48.982;12.064;2023-08-20T03:26:21;7.97;;;7.28;;
12052;SDS011;6087;48.982;12.064;2023-08-20T03:28:50;7.03;;;6.43;;
12052;SDS011;6087;48.982;12.064;2023-08-20T03:31:16;7.38;;;6.68;;
12052;SDS011;6087;48.982;12.064;2023-08-20T03:33:43;10.52;;;6.88;;
12052;SDS011;6087;48.982;12.064;2023-08-20T03:36:10;7.57;;;6.90;;
12052;SDS011;6087;48.982;12.064;2023-08-20T03:38:37;7.25;;;6.43;;
12052;SDS011;6087;48.982;12.064;2023-08-20T03:41:04;7.35;;;6.65;;
12052;SDS011;6087;48.982;12.064;2023-08-20T03:43:31;7.43;;;6.82;;
12052;SDS011;6087;48.982;12.064;2023-08-20T03:45:59;8.10;;;6.95;;
12052;SDS011;6087;48.982;12.064;2023-08-20T03:48:27;7.20;;;6.60;;
12052;SDS011;6087;48.982;12.064;2023-08-20T03:50:54;9.75;;;7.00;;
12052;SDS011;6087;48.982;12.064;2023-08-20T03:53:21;7.38;;;6.68;;
12052;SDS011;6087;48.982;12.064;2023-08-20T03:55:49;7.68;;;6.70;;
12052;SDS011;6087;48.982;12.064;2023-08-20T03:58:16;6.95;;;6.25;;
12052;SDS011;6087;48.982;12.064;2023-08-20T04:00:43;7.72;;;6.90;;
12052;SDS011;6087;48.982;12.064;2023-08-20T04:03:17;10.18;;;6.85;;
12052;SDS011;6087;48.982;12.064;2023-08-20T04:05:44;9.27;;;7.82;;
12052;SDS011;6087;48.982;12.064;2023-08-20T04:08:11;8.23;;;7.40;;
12052;SDS011;6087;48.982;12.064;2023-08-20T04:10:42;7.65;;;6.88;;
12052;SDS011;6087;48.982;12.064;2023-08-20T04:13:09;7.70;;;6.97;;
12052;SDS011;6087;48.982;12.064;2023-08-20T04:15:39;7.35;;;6.63;;
12052;SDS011;6087;48.982;12.064;2023-08-20T04:18:12;7.68;;;6.97;;
12052;SDS011;6087;48.982;12.064;2023-08-20T04:20:40;8.15;;;7.45;;
12052;SDS011;6087;48.982;12.064;2023-08-20T04:23:15;8.25;;;7.45;;
12052;SDS011;6087;48.982;12.064;2023-08-20T04:25:42;7.57;;;6.85;;
12052;SDS011;6087;48.982;12.064;2023-08-20T04:28:12;8.10;;;7.30;;
12052;SDS011;6087;48.982;12.064;2023-08-20T04:30:42;9.13;;;7.32;;
12052;SDS011;6087;48.982;12.064;2023-08-20T04:33:09;9.65;;;7.72;;
12052;SDS011;6087;48.982;12.064;2023-08-20T04:35:38;7.55;;;6.82;;
12052;SDS011;6087;48.982;12.064;2023-08-20T04:38:10;7.95;;;7.25;;
12052;SDS011;6087;48.982;12.064;2023-08-20T04:40:37;8.57;;;7.72;;
12052;SDS011;6087;48.982;12.064;2023-08-20T04:43:04;8.05;;;7.25;;
12052;SDS011;6087;48.982;12.064;2023-08-20T04:45:34;8.38;;;7.57;;
12052;SDS011;6087;48.982;12.064;2023-08-20T04:48:01;7.40;;;6.80;;
12052;SDS011;6087;48.982;12.064;2023-08-20T04:50:28;7.90;;;7.20;;
12052;SDS011;6087;48.982;12.064;2023-08-20T04:52:56;11.55;;;6.60;;
12052;SDS011;6087;48.982;12.064;2023-08-20T04:55:24;7.90;;;7.18;;
12052;SDS011;6087;48.982;12.064;2023-08-20T04:57:51;8.50;;;7.65;;
12052;SDS011;6087;48.982;12.064;2023-08-20T05:00:18;7.20;;;6.50;;
12052;SDS011;6087;48.982;12.064;2023-08-20T05:02:46;7.75;;;6.82;;
12052;SDS011;6087;48.982;12.064;2023-08-20T05:05:12;7.70;;;7.10;;
12052;SDS011;6087;48.982;12.064;2023-08-20T05:07:39;9.68;;;7.28;;
12052;SDS011;6087;48.982;12.064;2023-08-20T05:10:08;9.10;;;7.45;;
12052;SDS011;6087;48.982;12.064;2023-08-20T05:12:35;8.52;;;7.68;;
12052;SDS011;6087;48.982;12.064;2023-08-20T05:15:02;8.55;;;7.68;;
12052;SDS011;6087;48.982;12.064;2023-08-20T05:17:30;8.05;;;7.28;;
12052;SDS011;6087;48.982;12.064;2023-08-20T05:19:57;8.50;;;7.60;;
12052;SDS011;6087;48.982;12.064;2023-08-20T05:22:24;8.52;;;7.72;;
12052;SDS011;6087;48.982;12.064;2023-08-20T05:24:53;8.85;;;7.30;;
12052;SDS011;6087;48.982;12.064;2023-08-20T05:27:22;8.63;;;7.78;;
12052;SDS011;6087;48.982;12.064;2023-08-20T05:29:49;8.70;;;7.40;;
12052;SDS011;6087;48.982;12.064;2023-08-20T05:32:16;9.77;;;7.60;;
12052;SDS011;6087;48.982;12.064;2023-08-20T05:34:43;9.45;;;7.72;;
12052;SDS011;6087;48.982;12.064;2023-08-20T05:37:10;8.13;;;7.28;;
12052;SDS011;6087;48.982;12.064;2023-08-20T05:39:37;8.20;;;7.43;;
12052;SDS011;6087;48.982;12.064;2023-08-20T05:42:06;8.52;;;7.70;;
12052;SDS011;6087;48.982;12.064;2023-08-20T05:44:34;7.47;;;6.78;;
12052;SDS011;6087;48.982;12.064;2023-08-20T05:47:01;8.02;;;7.25;;
12052;SDS011;6087;48.982;12.064;2023-08-20T05:49:30;7.43;;;6.72;;
12052;SDS011;6087;48.982;12.064;2023-08-20T05:51:57;8.75;;;7.65;;
12052;SDS011;6087;48.982;12.064;2023-08-20T05:54:24;8.02;;;7.32;;
12052;SDS011;6087;48.982;12.064;2023-08-20T05:56:57;10.07;;;7.72;;
12052;SDS011;6087;48.982;12.064;2023-08-20T05:59:24;8.88;;;8.02;;
12052;SDS011;6087;48.982;12.064;2023-08-20T06:01:53;7.90;;;7.15;;
12052;SDS011;6087;48.982;12.064;2023-08-20T06:04:20;10.27;;;7.35;;
12052;SDS011;6087;48.982;12.064;2023-08-20T06:06:47;8.23;;;7.60;;
12052;SDS011;6087;48.982;12.064;2023-08-20T06:09:14;8.07;;;7.38;;
12052;SDS011;6087;48.982;12.064;2023-08-20T06:11:41;8.82;;;7.90;;
12052;SDS011;6087;48.982;12.064;2023-08-20T06:14:08;8.48;;;7.50;;
12052;SDS011;6087;48.982;12.064;2023-08-20T06:16:35;8.90;;;7.68;;
12052;SDS011;6087;48.982;12.064;2023-08-20T06:19:03;9.70;;;7.53;;
12052;SDS011;6087;48.982;12.064;2023-08-20T06:21:30;8.18;;;7.47;;
12052;SDS011;6087;48.982;12.064;2023-08-20T06:23:57;8.85;;;7.78;;
12052;SDS011;6087;48.982;12.064;2023-08-20T06:26:23;8.55;;;7.75;;
12052;SDS011;6087;48.982;12.064;2023-08-20T06:28:50;7.85;;;7.15;;
12052;SDS011;6087;48.982;12.064;2023-08-20T06:31:17;8.65;;;7.65;;
12052;SDS011;6087;48.982;12.064;2023-08-20T06:33:44;8.52;;;7.82;;
12052;SDS011;6087;48.982;12.064;2023-08-20T06:36:14;9.07;;;8.15;;
12052;SDS011;6087;48.982;12.064;2023-08-20T06:38:41;8.73;;;7.78;;
12052;SDS011;6087;48.982;12.064;2023-08-20T06:41:08;8.95;;;7.60;;
12052;SDS011;6087;48.982;12.064;2023-08-20T06:43:34;8.15;;;7.38;;
12052;SDS011;6087;48.982;12.064;2023-08-20T06:46:01;8.07;;;7.28;;
12052;SDS011;6087;48.982;12.064;2023-08-20T06:48:28;9.35;;;8.38;;
12052;SDS011;6087;48.982;12.064;2023-08-20T06:50:55;8.88;;;7.82;;
12052;SDS011;6087;48.982;12.064;2023-08-20T06:53:23;8.57;;;7.78;;
12052;SDS011;6087;48.982;12.064;2023-08-20T06:55:50;8.25;;;7.45;;
12052;SDS011;6087;48.982;12.064;2023-08-20T06:58:17;8.57;;;7.75;;
12052;SDS011;6087;48.982;12.064;2023-08-20T07:00:44;8.00;;;7.30;;
12052;SDS011;6087;48.982;12.064;2023-08-20T07:03:11;10.05;;;8.00;;
12052;SDS011;6087;48.982;12.064;2023-08-20T07:05:38;7.88;;;7.07;;
12052;SDS011;6087;48.982;12.064;2023-08-20T07:08:05;7.95;;;7.25;;
12052;SDS011;6087;48.982;12.064;2023-08-20T07:10:33;8.32;;;7.57;;
12052;SDS011;6087;48.982;12.064;2023-08-20T07:13:00;8.60;;;7.80;;
12052;SDS011;6087;48.982;12.064;2023-08-20T07:15:27;7.35;;;6.72;;
12052;SDS011;6087;48.982;12.064;2023-08-20T07:17:54;9.25;;;8.32;;
12052;SDS011;6087;48.982;12.064;2023-08-20T07:20:20;7.40;;;6.72;;
12052;SDS011;6087;48.982;12.064;2023-08-20T07:22:47;8.30;;;7.50;;
12052;SDS011;6087;48.982;12.064;2023-08-20T07:25:15;7.07;;;6.35;;
12052;SDS011;6087;48.982;12.064;2023-08-20T07:27:43;7.35;;;6.63;;
12052;SDS011;6087;48.982;12.064;2023-08-20T07:30:10;7.82;;;6.90;;
12052;SDS011;6087;48.982;12.064;2023-08-20T07:32:37;8.23;;;7.53;;
12052;SDS011;6087;48.982;12.064;2023-08-20T07:35:04;8.32;;;7.53;;
12052;SDS011;6087;48.982;12.064;2023-08-20T07:37:38;6.80;;;6.00;;
12052;SDS011;6087;48.982;12.064;2023-08-20T07:40:07;7.80;;;7.10;;
12052;SDS011;6087;48.982;12.064;2023-08-20T07:42:38;7.90;;;7.20;;
12052;SDS011;6087;48.982;12.064;2023-08-20T07:45:09;9.25;;;7.43;;
12052;SDS011;6087;48.982;12.064;2023-08-20T07:47:40;7.63;;;6.93;;
12052;SDS011;6087;48.982;12.064;2023-08-20T07:50:07;7.63;;;6.68;;
12052;SDS011;6087;48.982;12.064;2023-08-20T07:52:34;7.38;;;6.78;;
12052;SDS011;6087;48.982;12.064;2023-08-20T07:55:01;7.97;;;7.18;;
12052;SDS011;6087;48.982;12.064;2023-08-20T07:57:28;8.02;;;6.65;;
12052;SDS011;6087;48.982;12.064;2023-08-20T07:59:55;7.65;;;6.93;;
12052;SDS011;6087;48.982;12.064;2023-08-20T08:02:23;7.90;;;7.20;;
12052;SDS011;6087;48.982;12.064;2023-08-20T08:04:50;7.13;;;6.53;;
12052;SDS011;6087;48.982;12.064;2023-08-20T08:07:17;7.38;;;6.68;;
12052;SDS011;6087;48.982;12.064;2023-08-20T08:09:44;7.45;;;6.75;;
12052;SDS011;6087;48.982;12.064;2023-08-20T08:12:11;7.63;;;6.93;;
12052;SDS011;6087;48.982;12.064;2023-08-20T08:14:38;7.43;;;6.78;;
12052;SDS011;6087;48.982;12.064;2023-08-20T08:17:05;7.43;;;6.43;;
12052;SDS011;6087;48.982;12.064;2023-08-20T08:19:34;8.13;;;6.72;;
12052;SDS011;6087;48.982;12.064;2023-08-20T08:22:00;7.05;;;6.47;;
12052;SDS011;6087;48.982;12.064;2023-08-20T08:24:28;7.80;;;7.00;;
12052;SDS011;6087;48.982;12.064;2023-08-20T08:26:55;8.68;;;7.88;;
12052;SDS011;6087;48.982;12.064;2023-08-20T08:29:22;8.23;;;7.45;;
12052;SDS011;6087;48.982;12.064;2023-08-20T08:31:54;7.13;;;6.43;;
12052;SDS011;6087;48.982;12.064;2023-08-20T08:34:21;7.78;;;7.07;;
12052;SDS011;6087;48.982;12.064;2023-08-20T08:36:50;8.32;;;7.63;;
12052;SDS011;6087;48.982;12.064;2023-08-20T08:39:16;10.00;;;7.13;;
12052;SDS011;6087;48.982;12.064;2023-08-20T08:41:43;7.68;;;6.97;;
12052;SDS011;6087;48.982;12.064;2023-08-20T08:44:19;8.23;;;7.40;;
12052;SDS011;6087;48.982;12.064;2023-08-20T08:46:48;9.25;;;7.15;;
12052;SDS011;6087;48.982;12.064;2023-08-20T08:49:15;7.40;;;6.72;;
12052;SDS011;6087;48.982;12.064;2023-08-20T08:51:43;7.47;;;6.53;;
12052;SDS011;6087;48.982;12.064;2023-08-20T08:54:13;7.55;;;6.88;;
12052;SDS011;6087;48.982;12.064;2023-08-20T08:56:41;7.03;;;6.43;;
12052;SDS011;6087;48.982;12.064;2023-08-20T08:59:11;7.53;;;6.93;;
12052;SDS011;6087;48.982;12.064;2023-08-20T09:01:41;7.15;;;6.50;;
12052;SDS011;6087;48.982;12.064;2023-08-20T09:04:08;7.43;;;6.72;;
12052;SDS011;6087;48.982;12.064;2023-08-20T09:06:44;7.47;;;6.88;;
12052;SDS011;6087;48.982;12.064;2023-08-20T09:09:13;6.80;;;6.30;;
12052;SDS011;6087;48.982;12.064;2023-08-20T09:11:40;6.68;;;6.07;;
12052;SDS011;6087;48.982;12.064;2023-08-20T09:14:07;8.73;;;7.88;;
12052;SDS011;6087;48.982;12.064;2023-08-20T09:16:34;7.18;;;6.28;;
12052;SDS011;6087;48.982;12.064;2023-08-20T09:19:01;6.65;;;6.05;;
12052;SDS011;6087;48.982;12.064;2023-08-20T09:21:29;6.95;;;6.35;;
12052;SDS011;6087;48.982;12.064;2023-08-20T09:23:56;7.00;;;6.32;;
12052;SDS011;6087;48.982;12.064;2023-08-20T09:26:25;6.82;;;5.95;;
12052;SDS011;6087;48.982;12.064;2023-08-20T09:28:53;7.97;;;6.13;;
12052;SDS011;6087;48.982;12.064;2023-08-20T09:31:21;6.55;;;5.80;;
12052;SDS011;6087;48.982;12.064;2023-08-20T09:34:03;6.72;;;6.10;;
12052;SDS011;6087;48.982;12.064;2023-08-20T09:36:31;6.75;;;6.10;;
12052;SDS011;6087;48.982;12.064;2023-08-20T09:38:59;6.72;;;6.10;;
12052;SDS011;6087;48.982;12.064;2023-08-20T09:41:28;6.53;;;5.82;;
12052;SDS011;6087;48.982;12.064;2023-08-20T09:43:56;5.85;;;5.35;;
12052;SDS011;6087;48.982;12.064;2023-08-20T09:46:24;7.10;;;6.25;;
12052;SDS011;6087;48.982;12.064;2023-08-20T09:48:53;6.15;;;5.65;;
12052;SDS011;6087;48.982;12.064;2023-08-20T09:51:24;6.75;;;6.10;;
12052;SDS011;6087;48.982;12.064;2023-08-20T09:53:55;8.20;;;6.55;;
12052;SDS011;6087;48.982;12.064;2023-08-20T09:56:30;7.00;;;6.40;;
12052;SDS011;6087;48.982;12.064;2023-08-20T09:58:57;6.68;;;6.18;;
12052;SDS011;6087;48.982;12.064;2023-08-20T10:01:24;6.43;;;5.90;;
12052;SDS011;6087;48.982;12.064;2023-08-20T10:03:52;7.90;;;5.82;;
12052;SDS011;6087;48.982;12.064;2023-08-20T10:06:19;6.85;;;5.85;;
12052;SDS011;6087;48.982;12.064;2023-08-20T10:08:47;6.85;;;6.00;;
12052;SDS011;6087;48.982;12.064;2023-08-20T10:11:22;6.38;;;5.78;;
12052;SDS011;6087;48.982;12.064;2023-08-20T10:13:50;6.50;;;5.90;;
12052;SDS011;6087;48.982;12.064;2023-08-20T10:16:18;6.18;;;5.68;;
12052;SDS011;6087;48.982;12.064;2023-08-20T10:18:46;6.85;;;6.25;;
12052;SDS011;6087;48.982;12.064;2023-08-20T10:21:13;6.43;;;5.82;;
12052;SDS011;6087;48.982;12.064;2023-08-20T10:23:40;5.82;;;5.28;;
12052;SDS011;6087;48.982;12.064;2023-08-20T10:26:08;7.35;;;6.45;;
12052;SDS011;6087;48.982;12.064;2023-08-20T10:28:36;6.63;;;6.03;;
12052;SDS011;6087;48.982;12.064;2023-08-20T10:31:08;7.10;;;6.50;;
12052;SDS011;6087;48.982;12.064;2023-08-20T10:33:37;6.97;;;6.13;;
12052;SDS011;6087;48.982;12.064;2023-08-20T10:36:09;6.35;;;5.70;;
12052;SDS011;6087;48.982;12.064;2023-08-20T10:38:39;6.45;;;5.93;;
12052;SDS011;6087;48.982;12.064;2023-08-20T10:41:06;6.18;;;5.63;;
12052;SDS011;6087;48.982;12.064;2023-08-20T10:43:35;6.50;;;5.90;;
12052;SDS011;6087;48.982;12.064;2023-08-20T10:46:04;6.18;;;5.47;;
12052;SDS011;6087;48.982;12.064;2023-08-20T10:48:33;6.53;;;5.93;;
12052;SDS011;6087;48.982;12.064;2023-08-20T10:51:07;6.90;;;6.30;;
12052;SDS011;6087;48.982;12.064;2023-08-20T10:53:36;6.60;;;6.00;;
12052;SDS011;6087;48.982;12.064;2023-08-20T10:56:10;6.38;;;5.78;;
12052;SDS011;6087;48.982;12.064;2023-08-20T10:58:41;7.28;;;6.32;;
12052;SDS011;6087;48.982;12.064;2023-08-20T11:01:12;6.28;;;5.78;;
12052;SDS011;6087;48.982;12.064;2023-08-20T11:03:45;6.05;;;5.55;;
12052;SDS011;6087;48.982;12.064;2023-08-20T11:06:13;6.82;;;6.22;;
12052;SDS011;6087;48.982;12.064;2023-08-20T11:08:41;6.00;;;5.50;;
12052;SDS011;6087;48.982;12.064;2023-08-20T11:11:09;7.28;;;5.78;;
12052;SDS011;6087;48.982;12.064;2023-08-20T11:13:36;6.57;;;5.78;;
12052;SDS011;6087;48.982;12.064;2023-08-20T11:16:04;5.82;;;5.32;;
12052;SDS011;6087;48.982;12.064;2023-08-20T11:18:32;6.63;;;5.97;;
12052;SDS011;6087;48.982;12.064;2023-08-20T11:21:01;6.68;;;5.65;;
12052;SDS011;6087;48.982;12.064;2023-08-20T11:23:29;10.10;;;5.82;;
12052;SDS011;6087;48.982;12.064;2023-08-20T11:25:57;6.70;;;6.10;;
12052;SDS011;6087;48.982;12.064;2023-08-20T11:28:27;7.20;;;6.10;;
12052;SDS011;6087;48.982;12.064;2023-08-20T11:30:54;6.82;;;6.25;;
12052;SDS011;6087;48.982;12.064;2023-08-20T11:33:22;6.32;;;5.72;;
12052;SDS011;6087;48.982;12.064;2023-08-20T11:35:51;6.03;;;5.47;;
12052;SDS011;6087;48.982;12.064;2023-08-20T11:38:21;6.15;;;5.65;;
12052;SDS011;6087;48.982;12.064;2023-08-20T11:40:49;7.72;;;5.72;;
12052;SDS011;6087;48.982;12.064;2023-08-20T11:43:16;7.30;;;6.13;;
12052;SDS011;6087;48.982;12.064;2023-08-20T11:45:44;6.43;;;4.97;;
12052;SDS011;6087;48.982;12.064;2023-08-20T11:48:12;5.93;;;5.32;;
12052;SDS011;6087;48.982;12.064;2023-08-20T11:50:39;5.25;;;4.75;;
12052;SDS011;6087;48.982;12.064;2023-08-20T11:53:07;5.82;;;5.32;;
12052;SDS011;6087;48.982;12.064;2023-08-20T11:55:35;5.70;;;5.25;;
12052;SDS011;6087;48.982;12.064;2023-08-20T11:58:05;5.45;;;4.95;;
12052;SDS011;6087;48.982;12.064;2023-08-20T12:00:34;5.85;;;5.15;;
12052;SDS011;6087;48.982;12.064;2023-08-20T12:03:01;5.82;;;4.78;;
12052;SDS011;6087;48.982;12.064;2023-08-20T12:05:29;6.68;;;4.90;;
12052;SDS011;6087;48.982;12.064;2023-08-20T12:07:56;5.75;;;5.22;;
12052;SDS011;6087;48.982;12.064;2023-08-20T12:10:33;5.20;;;4.78;;
12052;SDS011;6087;48.982;12.064;2023-08-20T12:13:01;5.13;;;4.63;;
12052;SDS011;6087;48.982;12.064;2023-08-20T12:15:28;7.15;;;5.93;;
12052;SDS011;6087;48.982;12.064;2023-08-20T12:17:56;5.65;;;5.15;;
12052;SDS011;6087;48.982;12.064;2023-08-20T12:20:26;5.43;;;5.03;;
12052;SDS011;6087;48.982;12.064;2023-08-20T12:22:53;6.13;;;4.90;;
12052;SDS011;6087;48.982;12.064;2023-08-20T12:25:20;8.43;;;5.00;;
12052;SDS011;6087;48.982;12.064;2023-08-20T12:27:50;5.05;;;4.55;;
12052;SDS011;6087;48.982;12.064;2023-08-20T12:30:19;4.80;;;4.40;;
12052;SDS011;6087;48.982;12.064;2023-08-20T12:32:46;4.97;;;4.43;;
12052;SDS011;6087;48.982;12.064;2023-08-20T12:35:13;5.97;;;5.15;;
12052;SDS011;6087;48.982;12.064;2023-08-20T12:37:39;4.95;;;4.50;;
12052;SDS011;6087;48.982;12.064;2023-08-20T12:40:06;5.28;;;4.88;;
12052;SDS011;6087;48.982;12.064;2023-08-20T12:42:37;5.57;;;4.88;;
12052;SDS011;6087;48.982;12.064;2023-08-20T12:45:04;5.10;;;4.55;;
12052;SDS011;6087;48.982;12.064;2023-08-20T12:47:33;4.65;;;4.25;;
12052;SDS011;6087;48.982;12.064;2023-08-20T12:50:00;4.68;;;4.38;;
12052;SDS011;6087;48.982;12.064;2023-08-20T12:52:28;6.00;;;4.63;;
12052;SDS011;6087;48.982;12.064;2023-08-20T12:54:55;5.43;;;4.47;;
12052;SDS011;6087;48.982;12.064;2023-08-20T12:57:22;5.72;;;4.65;;
12052;SDS011;6087;48.982;12.064;2023-08-20T12:59:48;7.70;;;4.80;;
12052;SDS011;6087;48.982;12.064;2023-08-20T13:02:15;7.45;;;4.38;;
12052;SDS011;6087;48.982;12.064;2023-08-20T13:04:44;4.88;;;4.47;;
12052;SDS011;6087;48.982;12.064;2023-08-20T13:07:11;5.00;;;4.45;;
12052;SDS011;6087;48.982;12.064;2023-08-20T13:09:42;4.80;;;4.40;;
12052;SDS011;6087;48.982;12.064;2023-08-20T13:12:15;4.20;;;3.90;;
12052;SDS011;6087;48.982;12.064;2023-08-20T13:14:47;4.15;;;3.75;;
12052;SDS011;6087;48.982;12.064;2023-08-20T13:17:14;5.57;;;4.30;;
12052;SDS011;6087;48.982;12.064;2023-08-20T13:19:52;4.13;;;3.42;;
12052;SDS011;6087;48.982;12.064;2023-08-20T13:22:19;4.43;;;3.80;;
12052;SDS011;6087;48.982;12.064;2023-08-20T13:24:46;4.38;;;3.88;;
12052;SDS011;6087;48.982;12.064;2023-08-20T13:27:12;5.07;;;3.45;;
12052;SDS011;6087;48.982;12.064;2023-08-20T13:29:40;4.20;;;3.50;;
12052;SDS011;6087;48.982;12.064;2023-08-20T13:32:07;4.10;;;3.67;;
12052;SDS011;6087;48.982;12.064;2023-08-20T13:34:33;4.38;;;3.90;;
12052;SDS011;6087;48.982;12.064;2023-08-20T13:37:04;4.85;;;4.20;;
12052;SDS011;6087;48.982;12.064;2023-08-20T13:39:31;4.20;;;3.70;;
12052;SDS011;6087;48.982;12.064;2023-08-20T13:41:58;4.72;;;4.32;;
12052;SDS011;6087;48.982;12.064;2023-08-20T13:44:24;4.75;;;4.30;;
12052;SDS011;6087;48.982;12.064;2023-08-20T13:46:51;4.93;;;4.03;;
12052;SDS011;6087;48.982;12.064;2023-08-20T13:49:18;4.25;;;3.95;;
12052;SDS011;6087;48.982;12.064;2023-08-20T13:51:45;4.35;;;4.05;;
12052;SDS011;6087;48.982;12.064;2023-08-20T13:54:13;7.32;;;4.78;;
12052;SDS011;6087;48.982;12.064;2023-08-20T13:56:40;3.90;;;3.50;;
12052;SDS011;6087;48.982;12.064;2023-08-20T13:59:08;6.25;;;4.32;;
12052;SDS011;6087;48.982;12.064;2023-08-20T14:01:35;7.13;;;4.13;;
12052;SDS011;6087;48.982;12.064;2023-08-20T14:04:03;5.00;;;4.13;;
12052;SDS011;6087;48.982;12.064;2023-08-20T14:06:30;4.38;;;3.97;;
12052;SDS011;6087;48.982;12.064;2023-08-20T14:08:56;4.00;;;3.70;;
12052;SDS011;6087;48.982;12.064;2023-08-20T14:11:25;4.28;;;3.95;;
12052;SDS011;6087;48.982;12.064;2023-08-20T14:13:52;5.75;;;4.07;;
12052;SDS011;6087;48.982;12.064;2023-08-20T14:16:19;4.85;;;4.18;;
12052;SDS011;6087;48.982;12.064;2023-08-20T14:18:46;5.72;;;4.30;;
12052;SDS011;6087;48.982;12.064;2023-08-20T14:21:21;8.50;;;4.65;;
12052;SDS011;6087;48.982;12.064;2023-08-20T14:23:51;5.05;;;3.92;;
12052;SDS011;6087;48.982;12.064;2023-08-20T14:26:18;4.63;;;4.20;;
12052;SDS011;6087;48.982;12.064;2023-08-20T14:28:46;5.20;;;4.28;;
12052;SDS011;6087;48.982;12.064;2023-08-20T14:31:13;4.60;;;4.20;;
12052;SDS011;6087;48.982;12.064;2023-08-20T14:33:40;4.38;;;3.97;;
12052;SDS011;6087;48.982;12.064;2023-08-20T14:36:07;4.88;;;4.47;;
12052;SDS011;6087;48.982;12.064;2023-08-20T14:38:34;7.18;;;4.72;;
12052;SDS011;6087;48.982;12.064;2023-08-20T14:41:01;4.15;;;3.85;;
12052;SDS011;6087;48.982;12.064;2023-08-20T14:43:29;3.83;;;3.42;;
12052;SDS011;6087;48.982;12.064;2023-08-20T14:45:57;4.43;;;4.13;;
12052;SDS011;6087;48.982;12.064;2023-08-20T14:48:24;4.85;;;4.22;;
12052;SDS011;6087;48.982;12.064;2023-08-20T14:50:53;4.13;;;3.83;;
12052;SDS011;6087;48.982;12.064;2023-08-20T14:53:20;5.72;;;3.78;;